This is the latest recevied weather packets stored in our database for station/object N7MLR. If no packets are shown the sender has not sent any weather packets the latest 10 day(s).
| Time | Temp. | Humidity | Pressure | Rain* | Wind** | Luminosity | Snow |
|---|---|---|---|---|---|---|---|
| 1778166749 | 13.89° C | 90% | 1017.5 hPa | 0 mm | - | 51 W/m² | - |
| 1778166446 | 13.89° C | 90% | 1017.6 hPa | 0 mm | - | 54 W/m² | - |
| 1778166143 | 13.89° C | 90% | 1017.5 hPa | 0 mm | - | 56 W/m² | - |
| 1778165838 | 13.89° C | 90% | 1017.4 hPa | 0 mm | - | 64 W/m² | - |
| 1778165535 | 13.89° C | 90% | 1017.2 hPa | 0 mm | - | 104 W/m² | - |
| 1778165232 | 13.89° C | 91% | 1017.3 hPa | 0 mm | - | 110 W/m² | - |
| 1778164930 | 13.89° C | 92% | 1017.1 hPa | 0 mm | - | 145 W/m² | - |
| 1778164626 | 13.89° C | 93% | 1017.1 hPa | 0 mm | - | 158 W/m² | - |
| 1778164323 | 13.33° C | 93% | 1016.9 hPa | 0 mm | - | 131 W/m² | - |
| 1778164019 | 13.33° C | 93% | 1016.9 hPa | 0 mm | - | 119 W/m² | - |
| 1778163716 | 13.33° C | 93% | 1017.5 hPa | 0 mm | - | 59 W/m² | - |
| 1778163412 | 13.33° C | 93% | 1017.6 hPa | 0 mm | - | 42 W/m² | - |
| 1778163109 | 13.33° C | 94% | 1017.8 hPa | 0 mm | - | 32 W/m² | - |
| 1778162806 | 13.33° C | 94% | 1017.8 hPa | 0 mm | - | 51 W/m² | - |
| 1778162503 | 13.33° C | 95% | 1017.9 hPa | 0 mm | - | 32 W/m² | - |
| 1778162200 | 13.33° C | 95% | 1017.9 hPa | 0 mm | - | 23 W/m² | - |
| 1778161898 | 13.33° C | 95% | 1017.7 hPa | 0 mm | - | 38 W/m² | - |
| 1778161594 | 13.89° C | 95% | 1017.8 hPa | 0 mm | - | 17 W/m² | - |
| 1778161290 | 13.89° C | 95% | 1017.9 hPa | 0 mm | - | 18 W/m² | - |
| 1778160986 | 13.89° C | 95% | 1017.8 hPa | 0 mm | - | 16 W/m² | - |
| 1778160684 | 13.89° C | 95% | 1017.4 hPa | 0 mm | - | 19 W/m² | - |
| 1778160380 | 13.89° C | 94% | 1017.1 hPa | 0 mm | - | 19 W/m² | - |
| 1778160076 | 13.89° C | 93% | 1017.2 hPa | 0 mm | - | 42 W/m² | - |
| 1778159773 | 13.89° C | 93% | 1017.5 hPa | 0 mm | - | 33 W/m² | - |
| 1778159471 | 13.89° C | 93% | 1017.5 hPa | 0 mm | - | 18 W/m² | - |
* Rain latest hour (hover to see other rain measurements)
** Current wind speed in m/s (hover to see current wind gust speed)